Private Wetterstation Sandau
Wetterdaten: Freitag, 17.02.2012
Datum Zeit Temp. A. Feuchte A. Luftdruck Regen Wind Richtung Richtung Taupunkt Windchill
17.02.2012 00:02 4,1 C 92 % 1016,8 hPa 0,0 l/m 15,5 km/h (3 Bft) W 270 2,9 C 0,6 C
17.02.2012 00:07 4,1 C 92 % 1017,0 hPa 0,0 l/m 4,0 km/h (1 Bft) W-SW 247 2,9 C 4,1 C
17.02.2012 00:12 4,1 C 92 % 1017,0 hPa 0,0 l/m 8,3 km/h (2 Bft) NW 315 2,9 C 2,0 C
17.02.2012 00:17 4,1 C 92 % 1016,9 hPa 0,5 l/m 21,2 km/h (4 Bft) W-SW 247 2,9 C -0,2 C
17.02.2012 00:22 4,1 C 92 % 1016,7 hPa 0,0 l/m 6,1 km/h (2 Bft) W 270 2,9 C 2,7 C
17.02.2012 00:27 4,1 C 92 % 1016,8 hPa 0,0 l/m 6,8 km/h (2 Bft) W-SW 247 2,9 C 2,4 C
17.02.2012 00:32 4,1 C 92 % 1016,6 hPa 0,0 l/m 5,4 km/h (1 Bft) W 270 2,9 C 2,9 C
17.02.2012 00:37 4,1 C 92 % 1016,6 hPa 0,0 l/m 16,9 km/h (3 Bft) NW 315 2,9 C 0,3 C
17.02.2012 00:42 4,2 C 92 % 1016,7 hPa 0,0 l/m 11,9 km/h (2 Bft) W-SW 247 3,0 C 1,3 C
17.02.2012 00:47 4,2 C 92 % 1016,5 hPa 0,0 l/m 6,1 km/h (2 Bft) W-SW 247 3,0 C 2,8 C
17.02.2012 00:52 4,2 C 92 % 1016,7 hPa 0,0 l/m 15,8 km/h (3 Bft) W-SW 247 3,0 C 0,6 C
17.02.2012 00:57 4,1 C 92 % 1016,7 hPa 0,5 l/m 7,6 km/h (2 Bft) W-SW 247 2,9 C 2,2 C
17.02.2012 01:02 4,1 C 91 % 1016,7 hPa 0,0 l/m 5,0 km/h (1 Bft) W 270 2,8 C 3,1 C
17.02.2012 01:07 4,1 C 92 % 1016,5 hPa 0,0 l/m 6,5 km/h (2 Bft) W-SW 247 2,9 C 2,5 C
17.02.2012 01:12 4,1 C 92 % 1016,5 hPa 0,0 l/m 4,7 km/h (1 Bft) W 270 2,9 C 3,2 C
17.02.2012 01:17 4,1 C 91 % 1016,5 hPa 0,0 l/m 9,7 km/h (2 Bft) W 270 2,8 C 1,7 C
17.02.2012 01:22 4,1 C 91 % 1016,4 hPa 0,0 l/m 16,6 km/h (3 Bft) W 270 2,8 C 0,4 C
17.02.2012 01:27 4,1 C 91 % 1016,4 hPa 0,0 l/m 12,6 km/h (3 Bft) S-SO 157 2,8 C 1,1 C
17.02.2012 01:32 4,1 C 91 % 1016,4 hPa 0,0 l/m 7,6 km/h (2 Bft) W-SW 247 2,8 C 2,2 C
17.02.2012 01:37 4,1 C 91 % 1016,4 hPa 0,0 l/m 5,8 km/h (2 Bft) W-SW 247 2,8 C 2,8 C
17.02.2012 01:42 4,1 C 92 % 1016,5 hPa 0,0 l/m 9,0 km/h (2 Bft) W-NW 292 2,9 C 1,8 C
17.02.2012 01:47 4,1 C 92 % 1016,2 hPa 0,0 l/m 20,2 km/h (4 Bft) W-SW 247 2,9 C -0,1 C
17.02.2012 01:52 4,1 C 92 % 1016,3 hPa 0,0 l/m 8,3 km/h (2 Bft) W 270 2,9 C 2,0 C
17.02.2012 01:57 4,1 C 92 % 1016,3 hPa 0,0 l/m 6,8 km/h (2 Bft) W 270 2,9 C 2,4 C
17.02.2012 02:02 4,1 C 92 % 1016,3 hPa 0,0 l/m 8,3 km/h (2 Bft) W-SW 247 2,9 C 2,0 C
17.02.2012 02:07 4,1 C 91 % 1015,9 hPa 0,0 l/m 7,6 km/h (2 Bft) W-SW 247 2,8 C 2,2 C
17.02.2012 02:12 4,1 C 91 % 1016,0 hPa 0,0 l/m 9,7 km/h (2 Bft) W 270 2,8 C 1,7 C
17.02.2012 02:17 4,1 C 91 % 1016,1 hPa 0,0 l/m 11,2 km/h (2 Bft) W 270 2,8 C 1,3 C
17.02.2012 02:22 4,1 C 91 % 1016,1 hPa 0,0 l/m 14,4 km/h (3 Bft) W 270 2,8 C 0,7 C
17.02.2012 02:27 4,1 C 91 % 1016,0 hPa 0,0 l/m 9,4 km/h (2 Bft) W-SW 247 2,8 C 1,7 C
17.02.2012 02:32 4,1 C 91 % 1015,9 hPa 0,0 l/m 10,1 km/h (2 Bft) W-NW 292 2,8 C 1,6 C
17.02.2012 02:37 4,1 C 91 % 1015,7 hPa 0,0 l/m 9,4 km/h (2 Bft) SW 225 2,8 C 1,7 C
17.02.2012 02:42 4,1 C 91 % 1015,8 hPa 0,0 l/m 9,4 km/h (2 Bft) W-SW 247 2,8 C 1,7 C
17.02.2012 02:47 4,1 C 91 % 1015,8 hPa 0,0 l/m 16,9 km/h (3 Bft) W-SW 247 2,8 C 0,3 C
17.02.2012 02:52 4,1 C 92 % 1015,7 hPa 0,0 l/m 5,8 km/h (2 Bft) W 270 2,9 C 2,8 C
17.02.2012 02:57 4,1 C 92 % 1015,8 hPa 0,0 l/m 4,7 km/h (1 Bft) W-SW 247 2,9 C 3,2 C
17.02.2012 03:02 4,1 C 92 % 1015,8 hPa 0,0 l/m 16,9 km/h (3 Bft) W-SW 247 2,9 C 0,3 C
17.02.2012 03:07 4,1 C 92 % 1015,8 hPa 0,0 l/m 9,7 km/h (2 Bft) W-SW 247 2,9 C 1,7 C
17.02.2012 03:12 4,1 C 92 % 1015,6 hPa 0,0 l/m 5,0 km/h (1 Bft) SW 225 2,9 C 3,1 C
17.02.2012 03:17 4,1 C 92 % 1015,6 hPa 0,0 l/m 15,5 km/h (3 Bft) W 270 2,9 C 0,6 C
17.02.2012 03:22 4,1 C 92 % 1015,7 hPa 0,0 l/m 9,0 km/h (2 Bft) W-NW 292 2,9 C 1,8 C
17.02.2012 03:27 4,1 C 92 % 1015,7 hPa 0,0 l/m 14,4 km/h (3 Bft) W-NW 292 2,9 C 0,7 C
17.02.2012 03:32 4,1 C 92 % 1015,7 hPa 0,0 l/m 9,7 km/h (2 Bft) W 270 2,9 C 1,7 C
17.02.2012 03:37 4,1 C 92 % 1015,7 hPa 0,0 l/m 6,1 km/h (2 Bft) W-NW 292 2,9 C 2,7 C
17.02.2012 03:42 4,1 C 92 % 1015,7 hPa 0,0 l/m 23,4 km/h (4 Bft) W-NW 292 2,9 C -0,5 C
17.02.2012 03:47 4,2 C 92 % 1015,5 hPa 0,0 l/m 8,6 km/h (2 Bft) W-NW 292 3,0 C 2,0 C
17.02.2012 03:52 4,1 C 92 % 1015,6 hPa 0,0 l/m 6,5 km/h (2 Bft) W 270 2,9 C 2,5 C
17.02.2012 03:57 4,2 C 92 % 1015,5 hPa 0,0 l/m 19,1 km/h (3 Bft) W 270 3,0 C 0,2 C
17.02.2012 04:02 4,2 C 92 % 1015,4 hPa 0,0 l/m 11,2 km/h (2 Bft) W-SW 247 3,0 C 1,4 C
17.02.2012 04:07 4,2 C 92 % 1015,5 hPa 0,0 l/m 13,7 km/h (3 Bft) W 270 3,0 C 1,0 C
17.02.2012 04:12 4,2 C 91 % 1015,7 hPa 0,0 l/m 18,4 km/h (3 Bft) W 270 2,9 C 0,3 C
17.02.2012 04:17 4,1 C 91 % 1015,4 hPa 0,0 l/m 14,8 km/h (3 Bft) W-NW 292 2,8 C 0,7 C
17.02.2012 04:22 4,2 C 91 % 1015,4 hPa 0,0 l/m 6,1 km/h (2 Bft) W 270 2,9 C 2,8 C
17.02.2012 04:27 4,1 C 91 % 1015,5 hPa 0,0 l/m 17,3 km/h (3 Bft) W-NW 292 2,8 C 0,3 C
17.02.2012 04:32 4,1 C 91 % 1015,4 hPa 0,0 l/m 11,9 km/h (2 Bft) W-NW 292 2,8 C 1,2 C
17.02.2012 04:37 4,1 C 91 % 1015,3 hPa 0,0 l/m 13,3 km/h (3 Bft) W 270 2,8 C 0,9 C
17.02.2012 04:42 4,1 C 92 % 1015,4 hPa 0,0 l/m 11,2 km/h (2 Bft) W-NW 292 2,9 C 1,3 C
17.02.2012 04:47 4,1 C 92 % 1015,3 hPa 0,0 l/m 13,3 km/h (3 Bft) W-NW 292 2,9 C 0,9 C
17.02.2012 04:52 4,1 C 92 % 1015,4 hPa 0,0 l/m 9,7 km/h (2 Bft) W-NW 292 2,9 C 1,7 C
17.02.2012 04:57 4,1 C 92 % 1015,4 hPa 0,0 l/m 12,2 km/h (2 Bft) W 270 2,9 C 1,1 C
17.02.2012 05:02 4,1 C 92 % 1015,5 hPa 0,0 l/m 13,7 km/h (3 Bft) W 270 2,9 C 0,9 C
17.02.2012 05:07 4,1 C 92 % 1015,2 hPa 0,0 l/m 11,9 km/h (2 Bft) W 270 2,9 C 1,2 C
17.02.2012 05:12 4,2 C 92 % 1015,0 hPa 0,0 l/m 9,0 km/h (2 Bft) NW 315 3,0 C 1,9 C
17.02.2012 05:17 4,2 C 92 % 1015,1 hPa 0,0 l/m 14,4 km/h (3 Bft) W 270 3,0 C 0,9 C
17.02.2012 05:22 4,2 C 92 % 1015,1 hPa 0,0 l/m 11,2 km/h (2 Bft) W-NW 292 3,0 C 1,4 C
17.02.2012 05:27 4,2 C 92 % 1015,2 hPa 0,0 l/m 7,9 km/h (2 Bft) W 270 3,0 C 2,2 C
17.02.2012 05:32 4,1 C 92 % 1015,1 hPa 0,0 l/m 10,4 km/h (2 Bft) W 270 2,9 C 1,5 C
17.02.2012 05:37 4,1 C 92 % 1015,2 hPa 0,0 l/m 13,0 km/h (3 Bft) W 270 2,9 C 1,0 C
17.02.2012 05:42 4,2 C 92 % 1015,3 hPa 0,0 l/m 10,8 km/h (2 Bft) W-SW 247 3,0 C 1,5 C
17.02.2012 05:47 4,2 C 92 % 1015,1 hPa 0,0 l/m 22,0 km/h (4 Bft) W-SW 247 3,0 C -0,2 C
17.02.2012 05:52 4,2 C 92 % 1015,2 hPa 0,0 l/m 8,3 km/h (2 Bft) S 180 3,0 C 2,1 C
17.02.2012 05:57 4,2 C 92 % 1015,2 hPa 0,0 l/m 14,8 km/h (3 Bft) W 270 3,0 C 0,8 C
17.02.2012 06:02 4,2 C 92 % 1015,0 hPa 0,0 l/m 7,2 km/h (2 Bft) W 270 3,0 C 2,4 C
17.02.2012 06:07 4,2 C 92 % 1015,1 hPa 0,0 l/m 6,5 km/h (2 Bft) NW 315 3,0 C 2,6 C
17.02.2012 06:12 4,2 C 92 % 1015,0 hPa 0,0 l/m 11,2 km/h (2 Bft) W 270 3,0 C 1,4 C
17.02.2012 06:17 4,2 C 92 % 1014,9 hPa 0,0 l/m 18,0 km/h (3 Bft) W 270 3,0 C 0,3 C
17.02.2012 06:22 4,2 C 92 % 1014,8 hPa 0,0 l/m 17,3 km/h (3 Bft) W-NW 292 3,0 C 0,4 C
17.02.2012 06:27 4,2 C 92 % 1015,0 hPa 0,0 l/m 14,4 km/h (3 Bft) W-NW 292 3,0 C 0,9 C
17.02.2012 06:32 4,2 C 92 % 1015,2 hPa 0,0 l/m 12,2 km/h (2 Bft) W-NW 292 3,0 C 1,2 C
17.02.2012 06:37 4,2 C 92 % 1014,9 hPa 0,0 l/m 14,8 km/h (3 Bft) W-NW 292 3,0 C 0,8 C
17.02.2012 06:42 4,2 C 92 % 1015,0 hPa 0,0 l/m 13,3 km/h (3 Bft) W 270 3,0 C 1,0 C
17.02.2012 06:47 4,2 C 92 % 1015,0 hPa 0,0 l/m 13,7 km/h (3 Bft) W-NW 292 3,0 C 1,0 C
17.02.2012 06:52 4,2 C 92 % 1015,2 hPa 0,0 l/m 14,4 km/h (3 Bft) W 270 3,0 C 0,9 C
17.02.2012 06:57 4,2 C 92 % 1015,2 hPa 0,0 l/m 7,2 km/h (2 Bft) W-NW 292 3,0 C 2,4 C
17.02.2012 07:02 4,2 C 92 % 1015,4 hPa 0,0 l/m 12,2 km/h (2 Bft) W-NW 292 3,0 C 1,2 C
17.02.2012 07:07 4,2 C 92 % 1015,3 hPa 0,0 l/m 9,7 km/h (2 Bft) W 270 3,0 C 1,8 C
17.02.2012 07:12 4,3 C 92 % 1015,5 hPa 0,0 l/m 8,6 km/h (2 Bft) W 270 3,1 C 2,2 C
17.02.2012 07:17 4,3 C 92 % 1015,5 hPa 0,0 l/m 21,6 km/h (4 Bft) W 270 3,1 C -0,0 C
17.02.2012 07:22 4,3 C 92 % 1015,5 hPa 0,0 l/m 14,8 km/h (3 Bft) W 270 3,1 C 0,9 C
17.02.2012 07:27 4,3 C 92 % 1015,7 hPa 0,0 l/m 10,4 km/h (2 Bft) W 270 3,1 C 1,7 C
17.02.2012 07:32 4,3 C 92 % 1015,8 hPa 0,0 l/m 15,8 km/h (3 Bft) W 270 3,1 C 0,8 C
17.02.2012 07:37 4,3 C 92 % 1015,7 hPa 0,0 l/m 11,9 km/h (2 Bft) NW 315 3,1 C 1,4 C
17.02.2012 07:42 4,3 C 92 % 1015,7 hPa 0,0 l/m 13,0 km/h (3 Bft) W-NW 292 3,1 C 1,2 C
17.02.2012 07:47 4,2 C 92 % 1015,7 hPa 0,0 l/m 8,6 km/h (2 Bft) W 270 3,0 C 2,0 C
17.02.2012 07:52 4,2 C 92 % 1015,8 hPa 0,5 l/m 15,5 km/h (3 Bft) NW 315 3,0 C 0,7 C
17.02.2012 07:57 4,3 C 92 % 1015,7 hPa 0,0 l/m 6,8 km/h (2 Bft) W 270 3,1 C 2,7 C
17.02.2012 08:02 4,3 C 92 % 1015,9 hPa 0,0 l/m 8,3 km/h (2 Bft) W 270 3,1 C 2,2 C
17.02.2012 08:07 4,2 C 92 % 1015,8 hPa 0,0 l/m 13,0 km/h (3 Bft) W-NW 292 3,0 C 1,1 C
17.02.2012 08:12 4,3 C 92 % 1015,8 hPa 0,0 l/m 9,7 km/h (2 Bft) NW 315 3,1 C 1,9 C
17.02.2012 08:17 4,2 C 92 % 1015,9 hPa 0,0 l/m 7,9 km/h (2 Bft) W-NW 292 3,0 C 2,2 C
17.02.2012 08:22 4,2 C 92 % 1015,8 hPa 0,0 l/m 7,2 km/h (2 Bft) W-NW 292 3,0 C 2,4 C
17.02.2012 08:27 4,2 C 92 % 1015,9 hPa 0,0 l/m 14,0 km/h (3 Bft) W 270 3,0 C 0,9 C
17.02.2012 08:32 4,2 C 92 % 1016,0 hPa 0,0 l/m 6,5 km/h (2 Bft) W 270 3,0 C 2,6 C
17.02.2012 08:37 4,2 C 92 % 1016,4 hPa 0,0 l/m 6,1 km/h (2 Bft) W 270 3,0 C 2,8 C
17.02.2012 08:42 4,1 C 92 % 1016,2 hPa 0,0 l/m 6,5 km/h (2 Bft) W 270 2,9 C 2,5 C
17.02.2012 08:47 4,1 C 92 % 1016,3 hPa 0,0 l/m 10,8 km/h (2 Bft) W-NW 292 2,9 C 1,4 C
17.02.2012 08:52 4,2 C 92 % 1016,3 hPa 0,0 l/m 11,2 km/h (2 Bft) W-NW 292 3,0 C 1,4 C
17.02.2012 08:57 4,2 C 92 % 1016,4 hPa 0,0 l/m 10,1 km/h (2 Bft) W 270 3,0 C 1,7 C
17.02.2012 09:02 4,2 C 92 % 1016,3 hPa 0,0 l/m 5,4 km/h (1 Bft) W-NW 292 3,0 C 3,0 C
17.02.2012 09:07 4,3 C 92 % 1016,5 hPa 0,0 l/m 7,9 km/h (2 Bft) W-NW 292 3,1 C 2,3 C
17.02.2012 09:12 4,2 C 92 % 1016,4 hPa 0,0 l/m 11,9 km/h (2 Bft) W-NW 292 3,0 C 1,3 C
17.02.2012 09:17 4,3 C 92 % 1016,6 hPa 0,0 l/m 6,1 km/h (2 Bft) W 270 3,1 C 2,9 C
17.02.2012 09:22 4,3 C 92 % 1016,4 hPa 0,0 l/m 8,6 km/h (2 Bft) W 270 3,1 C 2,2 C
17.02.2012 09:27 4,3 C 92 % 1016,5 hPa 0,0 l/m 7,9 km/h (2 Bft) W 270 3,1 C 2,3 C
17.02.2012 09:32 4,3 C 92 % 1016,5 hPa 0,0 l/m 7,9 km/h (2 Bft) W-NW 292 3,1 C 2,3 C
17.02.2012 09:37 4,3 C 92 % 1016,7 hPa 0,0 l/m 7,9 km/h (2 Bft) W-NW 292 3,1 C 2,3 C
17.02.2012 09:42 4,4 C 92 % 1016,7 hPa 0,0 l/m 5,8 km/h (2 Bft) W 270 3,2 C 3,1 C
17.02.2012 09:47 4,6 C 92 % 1016,6 hPa 0,0 l/m 2,2 km/h (1 Bft) W-SW 247 3,4 C 4,6 C
17.02.2012 09:52 4,7 C 92 % 1016,8 hPa 0,0 l/m 2,5 km/h (1 Bft) W-NW 292 3,5 C 4,7 C
17.02.2012 09:57 4,9 C 92 % 1016,8 hPa 0,0 l/m 4,0 km/h (1 Bft) W-NW 292 3,7 C 4,9 C
17.02.2012 10:02 4,9 C 92 % 1016,7 hPa 0,0 l/m 7,9 km/h (2 Bft) W-NW 292 3,7 C 3,0 C
17.02.2012 10:07 4,9 C 92 % 1016,7 hPa 0,0 l/m 7,6 km/h (2 Bft) NW 315 3,7 C 3,1 C
17.02.2012 10:12 4,9 C 91 % 1016,8 hPa 0,0 l/m 12,6 km/h (3 Bft) NW 315 3,6 C 2,0 C
17.02.2012 10:17 4,8 C 91 % 1016,7 hPa 0,0 l/m 10,1 km/h (2 Bft) W-NW 292 3,5 C 2,4 C
17.02.2012 10:22 4,8 C 91 % 1016,8 hPa 0,0 l/m 5,8 km/h (2 Bft) NW 315 3,5 C 3,6 C
17.02.2012 10:27 4,8 C 91 % 1016,9 hPa 0,0 l/m 11,9 km/h (2 Bft) W-NW 292 3,5 C 2,0 C
17.02.2012 10:32 4,9 C 91 % 1016,8 hPa 0,0 l/m 7,2 km/h (2 Bft) W 270 3,6 C 3,2 C
17.02.2012 10:37 5,0 C 91 % 1017,0 hPa 0,0 l/m 9,7 km/h (2 Bft) W-NW 292 3,7 C 2,7 C
17.02.2012 10:42 5,1 C 91 % 1017,1 hPa 0,0 l/m 5,4 km/h (1 Bft) W-NW 292 3,8 C 4,0 C
17.02.2012 10:47 5,2 C 91 % 1017,1 hPa 0,0 l/m 9,4 km/h (2 Bft) W 270 3,9 C 3,0 C
17.02.2012 10:52 5,3 C 91 % 1017,1 hPa 0,0 l/m 9,4 km/h (2 Bft) W 270 4,0 C 3,1 C
17.02.2012 10:57 5,3 C 90 % 1017,3 hPa 0,0 l/m 9,4 km/h (2 Bft) W-NW 292 3,8 C 3,1 C
17.02.2012 11:02 5,3 C 90 % 1017,2 hPa 0,0 l/m 12,6 km/h (3 Bft) NW 315 3,8 C 2,5 C
17.02.2012 11:07 5,3 C 90 % 1017,1 hPa 0,0 l/m 5,8 km/h (2 Bft) W-NW 292 3,8 C 4,1 C
17.02.2012 11:12 5,4 C 89 % 1017,2 hPa 0,0 l/m 9,7 km/h (2 Bft) W-NW 292 3,7 C 3,2 C
17.02.2012 11:17 5,4 C 89 % 1017,1 hPa 0,0 l/m 5,8 km/h (2 Bft) N-NW 337 3,7 C 4,2 C
17.02.2012 11:22 5,5 C 89 % 1017,3 hPa 0,0 l/m 0,0 km/h (0 Bft) W-NW 292 3,8 C 5,5 C
17.02.2012 11:27 5,5 C 88 % 1017,5 hPa 0,0 l/m 9,4 km/h (2 Bft) NW 315 3,7 C 3,4 C
17.02.2012 11:32 5,5 C 88 % 1017,5 hPa 0,0 l/m 15,1 km/h (3 Bft) W 270 3,7 C 2,4 C
17.02.2012 11:37 5,6 C 87 % 1017,5 hPa 0,0 l/m 14,4 km/h (3 Bft) W 270 3,6 C 2,6 C
17.02.2012 11:42 5,6 C 86 % 1017,5 hPa 0,0 l/m 12,2 km/h (2 Bft) W 270 3,4 C 2,9 C
17.02.2012 11:47 5,6 C 86 % 1017,7 hPa 0,0 l/m 10,8 km/h (2 Bft) W-NW 292 3,4 C 3,2 C
17.02.2012 11:52 5,7 C 86 % 1017,3 hPa 0,0 l/m 14,4 km/h (3 Bft) N 360 3,5 C 2,7 C
17.02.2012 11:57 5,8 C 85 % 1017,3 hPa 0,0 l/m 18,0 km/h (3 Bft) N-NW 337 3,5 C 2,3 C
17.02.2012 12:02 5,8 C 85 % 1017,2 hPa 0,0 l/m 11,5 km/h (2 Bft) N-NW 337 3,5 C 3,3 C
17.02.2012 12:07 5,8 C 85 % 1017,4 hPa 0,0 l/m 11,5 km/h (2 Bft) NW 315 3,5 C 3,3 C
17.02.2012 12:12 5,8 C 84 % 1017,2 hPa 0,0 l/m 7,6 km/h (2 Bft) W 270 3,3 C 4,2 C
17.02.2012 12:17 5,9 C 84 % 1017,3 hPa 0,0 l/m 12,6 km/h (3 Bft) NW 315 3,4 C 3,2 C
17.02.2012 12:22 5,9 C 84 % 1017,2 hPa 0,0 l/m 4,3 km/h (1 Bft) N-NW 337 3,4 C 5,9 C
17.02.2012 12:27 5,9 C 83 % 1017,4 hPa 0,0 l/m 9,4 km/h (2 Bft) NW 315 3,2 C 3,9 C
17.02.2012 12:32 5,9 C 83 % 1017,3 hPa 0,0 l/m 10,4 km/h (2 Bft) W 270 3,2 C 3,7 C
17.02.2012 12:37 6,0 C 83 % 1017,3 hPa 0,0 l/m 10,4 km/h (2 Bft) W-NW 292 3,3 C 3,8 C
17.02.2012 12:42 6,1 C 82 % 1017,3 hPa 0,0 l/m 11,9 km/h (2 Bft) W-NW 292 3,3 C 3,6 C
17.02.2012 12:47 6,2 C 82 % 1017,2 hPa 0,0 l/m 16,9 km/h (3 Bft) NW 315 3,4 C 3,0 C
17.02.2012 12:52 6,2 C 81 % 1017,3 hPa 0,0 l/m 14,4 km/h (3 Bft) NW 315 3,2 C 3,3 C
17.02.2012 12:57 6,3 C 81 % 1017,3 hPa 0,0 l/m 9,4 km/h (2 Bft) W-NW 292 3,3 C 4,3 C
17.02.2012 13:02 6,3 C 81 % 1017,3 hPa 0,0 l/m 11,9 km/h (2 Bft) W-NW 292 3,3 C 3,8 C
17.02.2012 13:07 6,4 C 81 % 1017,2 hPa 0,0 l/m 6,8 km/h (2 Bft) W 270 3,4 C 5,1 C
17.02.2012 13:12 6,4 C 81 % 1017,2 hPa 0,0 l/m 13,0 km/h (3 Bft) W 270 3,4 C 3,8 C
17.02.2012 13:17 6,4 C 81 % 1017,2 hPa 0,0 l/m 9,0 km/h (2 Bft) N 360 3,4 C 4,5 C
17.02.2012 13:22 6,4 C 81 % 1017,2 hPa 0,0 l/m 11,2 km/h (2 Bft) NW 315 3,4 C 4,1 C
17.02.2012 13:27 6,4 C 81 % 1017,3 hPa 0,0 l/m 14,8 km/h (3 Bft) NW 315 3,4 C 3,5 C
17.02.2012 13:32 6,3 C 81 % 1017,1 hPa 0,0 l/m 13,0 km/h (3 Bft) W-NW 292 3,3 C 3,7 C
17.02.2012 13:37 6,3 C 81 % 1017,1 hPa 0,0 l/m 8,6 km/h (2 Bft) W 270 3,3 C 4,5 C
17.02.2012 13:42 6,3 C 81 % 1017,0 hPa 0,0 l/m 8,3 km/h (2 Bft) W-SW 247 3,3 C 4,6 C
17.02.2012 13:47 6,4 C 82 % 1017,3 hPa 0,0 l/m 5,8 km/h (2 Bft) SW 225 3,6 C 5,4 C
17.02.2012 13:52 6,5 C 81 % 1017,3 hPa 0,0 l/m 13,0 km/h (3 Bft) W-NW 292 3,5 C 3,9 C
17.02.2012 13:57 6,6 C 81 % 1017,2 hPa 0,0 l/m 9,4 km/h (2 Bft) W-SW 247 3,6 C 4,7 C
17.02.2012 14:02 6,8 C 80 % 1017,3 hPa 0,0 l/m 24,8 km/h (4 Bft) W 270 3,6 C 2,8 C
17.02.2012 14:07 6,8 C 80 % 1017,3 hPa 0,0 l/m 12,6 km/h (3 Bft) W-SW 247 3,6 C 4,3 C
17.02.2012 14:12 6,8 C 79 % 1017,2 hPa 0,0 l/m 19,1 km/h (3 Bft) W 270 3,4 C 3,4 C
17.02.2012 14:17 6,7 C 79 % 1017,2 hPa 0,0 l/m 11,9 km/h (2 Bft) W-NW 292 3,3 C 4,3 C
17.02.2012 14:22 6,7 C 79 % 1017,3 hPa 0,0 l/m 8,6 km/h (2 Bft) W 270 3,3 C 5,0 C
17.02.2012 14:27 6,7 C 79 % 1017,3 hPa 0,0 l/m 23,4 km/h (4 Bft) W-NW 292 3,3 C 2,9 C
17.02.2012 14:32 6,7 C 79 % 1017,2 hPa 0,0 l/m 12,6 km/h (3 Bft) W 270 3,3 C 4,2 C
17.02.2012 14:37 6,6 C 79 % 1017,3 hPa 0,0 l/m 14,0 km/h (3 Bft) N-NW 337 3,2 C 3,9 C
17.02.2012 14:42 6,7 C 79 % 1017,3 hPa 0,0 l/m 23,0 km/h (4 Bft) NW 315 3,3 C 2,9 C
17.02.2012 14:47 6,7 C 78 % 1017,4 hPa 0,0 l/m 11,5 km/h (2 Bft) NW 315 3,1 C 4,4 C
17.02.2012 14:52 6,6 C 78 % 1017,4 hPa 0,0 l/m 5,4 km/h (1 Bft) NW 315 3,0 C 5,8 C
17.02.2012 14:57 6,5 C 78 % 1017,4 hPa 0,0 l/m 6,5 km/h (2 Bft) NW 315 2,9 C 5,3 C
17.02.2012 15:02 6,4 C 78 % 1017,4 hPa 0,0 l/m 14,8 km/h (3 Bft) NW 315 2,8 C 3,5 C
17.02.2012 15:07 6,4 C 78 % 1017,5 hPa 0,0 l/m 6,5 km/h (2 Bft) W-NW 292 2,8 C 5,2 C
17.02.2012 15:12 6,4 C 78 % 1017,5 hPa 0,0 l/m 12,6 km/h (3 Bft) W-NW 292 2,8 C 3,8 C
17.02.2012 15:17 6,4 C 78 % 1017,5 hPa 0,0 l/m 16,6 km/h (3 Bft) W-SW 247 2,8 C 3,3 C
17.02.2012 15:22 6,4 C 78 % 1017,6 hPa 0,0 l/m 10,4 km/h (2 Bft) W-NW 292 2,8 C 4,3 C
17.02.2012 15:27 6,4 C 78 % 1017,6 hPa 0,0 l/m 15,8 km/h (3 Bft) W-SW 247 2,8 C 3,4 C
17.02.2012 15:32 6,4 C 78 % 1017,6 hPa 0,0 l/m 23,0 km/h (4 Bft) W 270 2,8 C 2,5 C
17.02.2012 15:37 6,4 C 78 % 1017,7 hPa 0,0 l/m 10,8 km/h (2 Bft) NW 315 2,8 C 4,2 C
17.02.2012 15:42 6,3 C 78 % 1017,8 hPa 0,0 l/m 14,4 km/h (3 Bft) NW 315 2,8 C 3,4 C
17.02.2012 15:47 6,2 C 78 % 1017,8 hPa 0,0 l/m 9,7 km/h (2 Bft) NW 315 2,7 C 4,2 C
17.02.2012 15:52 6,2 C 78 % 1017,8 hPa 0,0 l/m 11,2 km/h (2 Bft) W-NW 292 2,7 C 3,9 C
17.02.2012 15:57 6,1 C 78 % 1017,9 hPa 0,0 l/m 9,0 km/h (2 Bft) W-NW 292 2,6 C 4,2 C
17.02.2012 16:02 6,1 C 78 % 1017,6 hPa 0,0 l/m 10,4 km/h (2 Bft) W-NW 292 2,6 C 3,9 C
17.02.2012 16:07 6,1 C 79 % 1017,7 hPa 0,0 l/m 7,6 km/h (2 Bft) W 270 2,7 C 4,5 C
17.02.2012 16:12 5,9 C 79 % 1017,8 hPa 0,0 l/m 16,2 km/h (3 Bft) W 270 2,5 C 2,7 C
17.02.2012 16:17 5,9 C 79 % 1017,7 hPa 0,0 l/m 9,7 km/h (2 Bft) W 270 2,5 C 3,8 C
17.02.2012 16:22 5,8 C 80 % 1017,6 hPa 0,0 l/m 9,0 km/h (2 Bft) W 270 2,6 C 3,8 C
17.02.2012 16:27 5,8 C 80 % 1017,8 hPa 0,0 l/m 8,3 km/h (2 Bft) NW 315 2,6 C 4,0 C
17.02.2012 16:32 5,8 C 80 % 1017,8 hPa 0,0 l/m 9,4 km/h (2 Bft) W 270 2,6 C 3,7 C
17.02.2012 16:37 5,8 C 81 % 1017,8 hPa 0,0 l/m 15,1 km/h (3 Bft) W-SW 247 2,8 C 2,7 C
17.02.2012 16:42 5,6 C 81 % 1017,9 hPa 0,0 l/m 10,8 km/h (2 Bft) W-NW 292 2,6 C 3,2 C
17.02.2012 16:47 5,6 C 81 % 1017,8 hPa 0,0 l/m 8,3 km/h (2 Bft) W 270 2,6 C 3,8 C
17.02.2012 16:52 5,6 C 81 % 1017,9 hPa 0,0 l/m 9,4 km/h (2 Bft) NW 315 2,6 C 3,5 C
17.02.2012 16:57 5,6 C 81 % 1017,7 hPa 0,0 l/m 7,6 km/h (2 Bft) W-NW 292 2,6 C 3,9 C
17.02.2012 17:02 5,6 C 81 % 1017,8 hPa 0,0 l/m 8,3 km/h (2 Bft) W 270 2,6 C 3,8 C
17.02.2012 17:07 5,5 C 81 % 1017,8 hPa 0,0 l/m 9,4 km/h (2 Bft) W 270 2,5 C 3,4 C
17.02.2012 17:12 5,4 C 81 % 1017,9 hPa 0,0 l/m 10,8 km/h (2 Bft) W-NW 292 2,4 C 3,0 C
17.02.2012 17:17 5,3 C 81 % 1018,0 hPa 0,0 l/m 8,3 km/h (2 Bft) W 270 2,3 C 3,4 C
17.02.2012 17:22 5,2 C 81 % 1017,7 hPa 0,0 l/m 4,7 km/h (1 Bft) W 270 2,2 C 4,4 C
17.02.2012 17:27 5,1 C 82 % 1017,9 hPa 0,0 l/m 10,8 km/h (2 Bft) W-SW 247 2,3 C 2,6 C
17.02.2012 17:32 5,1 C 82 % 1017,9 hPa 0,0 l/m 5,0 km/h (1 Bft) W 270 2,3 C 4,2 C
17.02.2012 17:37 5,0 C 82 % 1018,0 hPa 0,0 l/m 7,9 km/h (2 Bft) W 270 2,2 C 3,2 C
17.02.2012 17:42 4,9 C 82 % 1017,8 hPa 0,0 l/m 5,8 km/h (2 Bft) W 270 2,1 C 3,7 C
17.02.2012 17:47 4,9 C 82 % 1018,0 hPa 0,0 l/m 4,7 km/h (1 Bft) W-NW 292 2,1 C 4,1 C
17.02.2012 17:52 4,8 C 82 % 1018,0 hPa 0,0 l/m 7,2 km/h (2 Bft) W 270 2,0 C 3,1 C
17.02.2012 17:57 4,7 C 83 % 1018,1 hPa 0,0 l/m 5,0 km/h (1 Bft) W-SW 247 2,1 C 3,7 C
17.02.2012 18:02 4,5 C 83 % 1018,3 hPa 0,0 l/m 8,6 km/h (2 Bft) W 270 1,9 C 2,4 C
17.02.2012 18:07 4,4 C 83 % 1018,3 hPa 0,0 l/m 5,0 km/h (1 Bft) W-SW 247 1,8 C 3,4 C
17.02.2012 18:12 4,3 C 83 % 1018,5 hPa 0,0 l/m 6,5 km/h (2 Bft) W 270 1,7 C 2,8 C
17.02.2012 18:17 4,3 C 83 % 1018,5 hPa 0,0 l/m 4,7 km/h (1 Bft) W 270 1,7 C 3,4 C
17.02.2012 18:22 4,2 C 83 % 1018,5 hPa 0,0 l/m 2,9 km/h (1 Bft) NW 315 1,6 C 4,2 C
17.02.2012 18:27 4,1 C 83 % 1018,6 hPa 0,0 l/m 6,1 km/h (2 Bft) W 270 1,5 C 2,7 C
17.02.2012 18:32 4,1 C 83 % 1018,6 hPa 0,0 l/m 4,7 km/h (1 Bft) W-SW 247 1,5 C 3,2 C
17.02.2012 18:37 4,0 C 84 % 1018,5 hPa 0,0 l/m 7,2 km/h (2 Bft) W-SW 247 1,5 C 2,2 C
17.02.2012 18:42 3,9 C 84 % 1018,6 hPa 0,0 l/m 4,0 km/h (1 Bft) W 270 1,4 C 3,9 C
17.02.2012 18:47 3,9 C 84 % 1018,6 hPa 0,0 l/m 10,8 km/h (2 Bft) W-SW 247 1,4 C 1,2 C
17.02.2012 18:52 3,9 C 84 % 1018,7 hPa 0,0 l/m 4,0 km/h (1 Bft) W-NW 292 1,4 C 3,9 C
17.02.2012 18:57 3,9 C 84 % 1018,7 hPa 0,0 l/m 5,4 km/h (1 Bft) W 270 1,4 C 2,7 C
17.02.2012 19:02 3,9 C 84 % 1018,8 hPa 0,0 l/m 2,5 km/h (1 Bft) W 270 1,4 C 3,9 C
17.02.2012 19:07 3,8 C 84 % 1018,7 hPa 0,0 l/m 6,8 km/h (2 Bft) SW 225 1,4 C 2,1 C
17.02.2012 19:12 3,8 C 85 % 1018,7 hPa 0,0 l/m 5,0 km/h (1 Bft) W-SW 247 1,5 C 2,7 C
17.02.2012 19:17 3,8 C 85 % 1018,6 hPa 0,0 l/m 4,0 km/h (1 Bft) W-SW 247 1,5 C 3,8 C
17.02.2012 19:22 3,8 C 85 % 1018,8 hPa 0,0 l/m 6,8 km/h (2 Bft) W 270 1,5 C 2,1 C
17.02.2012 19:27 3,8 C 85 % 1018,8 hPa 0,0 l/m 9,4 km/h (2 Bft) W-SW 247 1,5 C 1,4 C
17.02.2012 19:32 3,8 C 85 % 1018,8 hPa 0,0 l/m 9,4 km/h (2 Bft) W-SW 247 1,5 C 1,4 C
17.02.2012 19:37 3,9 C 86 % 1019,0 hPa 0,0 l/m 9,4 km/h (2 Bft) W 270 1,8 C 1,5 C
17.02.2012 19:42 3,9 C 86 % 1019,0 hPa 0,0 l/m 6,1 km/h (2 Bft) W 270 1,8 C 2,4 C
17.02.2012 19:47 3,9 C 86 % 1019,1 hPa 0,0 l/m 9,4 km/h (2 Bft) W-SW 247 1,8 C 1,5 C
17.02.2012 19:52 4,1 C 86 % 1019,1 hPa 0,0 l/m 10,1 km/h (2 Bft) W-SW 247 2,0 C 1,6 C
17.02.2012 19:57 4,1 C 86 % 1019,1 hPa 0,0 l/m 6,5 km/h (2 Bft) W-SW 247 2,0 C 2,5 C
17.02.2012 20:02 4,1 C 86 % 1019,1 hPa 0,0 l/m 8,6 km/h (2 Bft) W 270 2,0 C 1,9 C
17.02.2012 20:07 4,1 C 86 % 1019,2 hPa 0,0 l/m 14,4 km/h (3 Bft) W 270 2,0 C 0,7 C
17.02.2012 20:12 4,1 C 86 % 1019,0 hPa 0,0 l/m 7,6 km/h (2 Bft) W-SW 247 2,0 C 2,2 C
17.02.2012 20:17 4,1 C 86 % 1019,1 hPa 0,0 l/m 6,5 km/h (2 Bft) W-SW 247 2,0 C 2,5 C
17.02.2012 20:22 4,1 C 86 % 1019,2 hPa 0,0 l/m 4,0 km/h (1 Bft) W 270 2,0 C 4,1 C
17.02.2012 20:27 4,1 C 86 % 1019,2 hPa 0,0 l/m 2,2 km/h (1 Bft) W 270 2,0 C 4,1 C
17.02.2012 20:32 4,1 C 86 % 1019,2 hPa 0,0 l/m 7,6 km/h (2 Bft) W-SW 247 2,0 C 2,2 C
17.02.2012 20:37 4,1 C 86 % 1019,3 hPa 0,0 l/m 7,9 km/h (2 Bft) S-SW 202 2,0 C 2,1 C
17.02.2012 20:42 4,1 C 86 % 1019,3 hPa 0,0 l/m 9,0 km/h (2 Bft) SW 225 2,0 C 1,8 C
17.02.2012 20:47 4,1 C 86 % 1019,4 hPa 0,0 l/m 3,6 km/h (1 Bft) W-NW 292 2,0 C 4,1 C
17.02.2012 20:52 4,1 C 86 % 1019,2 hPa 0,0 l/m 5,4 km/h (1 Bft) W-NW 292 2,0 C 2,9 C
17.02.2012 20:57 4,1 C 86 % 1019,2 hPa 0,0 l/m 3,2 km/h (1 Bft) W-SW 247 2,0 C 4,1 C
17.02.2012 21:02 4,1 C 87 % 1019,2 hPa 0,0 l/m 4,7 km/h (1 Bft) W-NW 292 2,1 C 3,2 C
17.02.2012 21:07 4,1 C 87 % 1019,2 hPa 0,0 l/m 4,0 km/h (1 Bft) W 270 2,1 C 4,1 C
17.02.2012 21:12 4,1 C 87 % 1019,3 hPa 0,0 l/m 2,5 km/h (1 Bft) W 270 2,1 C 4,1 C
17.02.2012 21:17 4,1 C 87 % 1019,3 hPa 0,0 l/m 1,8 km/h (1 Bft) W 270 2,1 C 4,1 C
17.02.2012 21:22 4,1 C 87 % 1019,3 hPa 0,0 l/m 5,8 km/h (2 Bft) W 270 2,1 C 2,8 C
17.02.2012 21:27 3,9 C 87 % 1019,3 hPa 0,0 l/m 6,1 km/h (2 Bft) W 270 1,9 C 2,4 C
17.02.2012 21:32 3,9 C 87 % 1019,5 hPa 0,0 l/m 7,9 km/h (2 Bft) W 270 1,9 C 1,9 C
17.02.2012 21:37 3,9 C 87 % 1019,2 hPa 0,0 l/m 5,0 km/h (1 Bft) W 270 1,9 C 2,8 C
17.02.2012 21:42 3,9 C 87 % 1019,2 hPa 0,0 l/m 4,7 km/h (1 Bft) W-SW 247 1,9 C 3,0 C
17.02.2012 21:47 3,9 C 87 % 1019,3 hPa 0,0 l/m 6,5 km/h (2 Bft) W-SW 247 1,9 C 2,3 C
17.02.2012 21:52 3,9 C 87 % 1019,3 hPa 0,0 l/m 5,0 km/h (1 Bft) W-SW 247 1,9 C 2,8 C
17.02.2012 21:57 3,8 C 87 % 1019,3 hPa 0,0 l/m 6,5 km/h (2 Bft) W 270 1,8 C 2,2 C
17.02.2012 22:02 3,8 C 87 % 1019,4 hPa 0,0 l/m 10,4 km/h (2 Bft) W 270 1,8 C 1,1 C
17.02.2012 22:07 3,6 C 87 % 1019,3 hPa 0,0 l/m 4,3 km/h (1 Bft) W 270 1,6 C 3,6 C
17.02.2012 22:12 3,6 C 87 % 1019,3 hPa 0,0 l/m 4,7 km/h (1 Bft) W 270 1,6 C 2,6 C
17.02.2012 22:17 3,5 C 87 % 1019,2 hPa 0,0 l/m 5,8 km/h (2 Bft) W-SW 247 1,5 C 2,1 C
17.02.2012 22:22 3,4 C 87 % 1019,3 hPa 0,0 l/m 5,4 km/h (1 Bft) SW 225 1,4 C 2,1 C
17.02.2012 22:27 3,3 C 87 % 1019,2 hPa 0,0 l/m 8,6 km/h (2 Bft) W 270 1,3 C 1,0 C
17.02.2012 22:32 3,3 C 87 % 1019,2 hPa 0,0 l/m 7,6 km/h (2 Bft) W-SW 247 1,3 C 1,3 C
17.02.2012 22:37 3,2 C 87 % 1019,2 hPa 0,0 l/m 3,6 km/h (1 Bft) W-SW 247 1,2 C 3,2 C
17.02.2012 22:42 3,1 C 87 % 1019,0 hPa 0,0 l/m 7,2 km/h (2 Bft) W-SW 247 1,2 C 1,1 C
17.02.2012 22:47 3,1 C 87 % 1019,2 hPa 0,0 l/m 2,9 km/h (1 Bft) W 270 1,2 C 3,1 C
17.02.2012 22:52 2,9 C 87 % 1019,2 hPa 0,0 l/m 2,9 km/h (1 Bft) W 270 1,0 C 2,9 C
17.02.2012 22:57 2,9 C 87 % 1019,3 hPa 0,0 l/m 3,2 km/h (1 Bft) W 270 1,0 C 2,9 C
17.02.2012 23:02 2,9 C 88 % 1019,2 hPa 0,0 l/m 2,9 km/h (1 Bft) W 270 1,1 C 2,9 C
17.02.2012 23:07 2,9 C 88 % 1019,2 hPa 0,0 l/m 3,2 km/h (1 Bft) W 270 1,1 C 2,9 C
17.02.2012 23:12 3,0 C 88 % 1019,1 hPa 0,0 l/m 1,8 km/h (1 Bft) W 270 1,2 C 3,0 C
17.02.2012 23:17 3,0 C 88 % 1019,2 hPa 0,0 l/m 7,9 km/h (2 Bft) W-SW 247 1,2 C 0,8 C
17.02.2012 23:22 3,0 C 88 % 1019,2 hPa 0,0 l/m 6,1 km/h (2 Bft) NW 315 1,2 C 1,4 C
17.02.2012 23:27 3,1 C 88 % 1019,3 hPa 0,0 l/m 5,4 km/h (1 Bft) W-SW 247 1,3 C 1,8 C
17.02.2012 23:32 3,1 C 88 % 1019,1 hPa 0,0 l/m 7,2 km/h (2 Bft) W-SW 247 1,3 C 1,1 C
17.02.2012 23:37 3,1 C 89 % 1019,2 hPa 0,0 l/m 6,5 km/h (2 Bft) W 270 1,5 C 1,4 C
17.02.2012 23:42 3,2 C 89 % 1019,3 hPa 0,5 l/m 2,9 km/h (1 Bft) W 270 1,6 C 3,2 C
17.02.2012 23:47 3,2 C 89 % 1019,4 hPa 0,0 l/m 2,2 km/h (1 Bft) W 270 1,6 C 3,2 C
17.02.2012 23:52 3,2 C 89 % 1019,3 hPa 0,0 l/m 3,2 km/h (1 Bft) W-NW 292 1,6 C 3,2 C
17.02.2012 23:57 3,2 C 89 % 1019,3 hPa 0,0 l/m 3,6 km/h (1 Bft) W 270 1,6 C 3,2 C
_ Min-Zeit 22:52 14:47 06:22 - 11:22 - - 22:52 03:42
Minimum _ 2,9 C 78 % 1014,8 hPa - 0,0 km/h (0 Bft) - - 1,0 C -0,5 C
_ Max-Zeit 14:02 00:02 21:32 00:17 14:02 - - 10:52 12:22
Maximum _ 6,8 C 92 % 1019,5 hPa 0,5 l/m 24,8 km/h
W (4 Bft)
- - 4,0 C 5,9 C
Durchschnitt _ 4,6 C 87 % 1017,2 hPa #2,1 l/m 9,5 km/h (2 Bft) W - 2,7 C 2,6 C
(c) by David Heller